createdAt,value
2024-02-09T00:01:16.359Z,99177.23
2024-02-09T00:06:22.684Z,99183.23
2024-02-09T00:11:29.791Z,99189.73
2024-02-09T00:16:35.662Z,99191.93
2024-02-09T00:21:41.526Z,99185.05
2024-02-09T00:26:47.283Z,99174.08
2024-02-09T00:31:53.915Z,99177.48
2024-02-09T00:37:01.416Z,99186.23
2024-02-09T00:42:13.594Z,99186.60
2024-02-09T00:47:19.418Z,99181.47
2024-02-09T00:52:25.733Z,99186.11
2024-02-09T00:57:31.657Z,99183.85
2024-02-09T01:02:37.359Z,99188.64
2024-02-09T01:07:43.344Z,99187.45
2024-02-09T01:13:07.725Z,99174.99
2024-02-09T01:18:32.396Z,99171.29
2024-02-09T01:23:58.812Z,99171.48
2024-02-09T01:29:23.229Z,99174.88
2024-02-09T01:34:47.918Z,99176.26
2024-02-09T01:40:12.270Z,99173.55
2024-02-09T01:45:36.496Z,99173.91
2024-02-09T01:51:03.535Z,99176.33
2024-02-09T01:56:28.185Z,99172.53
2024-02-09T02:01:55.653Z,99169.63
2024-02-09T02:07:20.243Z,99162.44
2024-02-09T02:12:44.517Z,99166.03
2024-02-09T02:18:09.197Z,99162.48
2024-02-09T02:23:41.131Z,99164.34
2024-02-09T02:29:05.368Z,99161.08
2024-02-09T02:34:29.646Z,99161.06
2024-02-09T02:39:56.190Z,99161.56
2024-02-09T02:45:02.321Z,99158.52
2024-02-09T02:50:28.823Z,99156.30
2024-02-09T02:55:55.181Z,99156.98
2024-02-09T03:01:21.870Z,99153.59
2024-02-09T03:06:31.707Z,99156.30
2024-02-09T03:11:47.062Z,99158.50
2024-02-09T03:16:52.680Z,99152.52
2024-02-09T03:21:58.292Z,99155.96
2024-02-09T03:27:04.172Z,99164.88
2024-02-09T03:32:10.707Z,99171.02
2024-02-09T03:37:17.634Z,99172.02
2024-02-09T03:42:24.559Z,99168.75
2024-02-09T03:47:30.559Z,99173.20
2024-02-09T03:52:36.358Z,99177.01
2024-02-09T03:57:42.139Z,99185.02
2024-02-09T04:02:48.064Z,99186.38
2024-02-09T04:07:54.347Z,99185.51
2024-02-09T04:13:00.306Z,99190.31
2024-02-09T04:18:09.413Z,99199.38
2024-02-09T04:23:16.211Z,99192.21
2024-02-09T04:28:22.146Z,99185.58
2024-02-09T04:33:27.870Z,99180.80
2024-02-09T04:38:35.673Z,99177.38
2024-02-09T04:43:41.325Z,99160.45
2024-02-09T04:48:47.121Z,99141.83
2024-02-09T04:53:52.768Z,99135.17
2024-02-09T04:58:58.571Z,99129.58
2024-02-09T05:04:06.164Z,99130.61
2024-02-09T05:09:11.757Z,99136.95
2024-02-09T05:14:17.444Z,99149.92
2024-02-09T05:19:23.188Z,99156.07
2024-02-09T05:24:29.332Z,99159.81
2024-02-09T05:29:35.065Z,99152.96
2024-02-09T05:34:45.753Z,99146.66
2024-02-09T05:39:53.061Z,99145.80
2024-02-09T05:44:58.609Z,99151.25
2024-02-09T05:50:05.357Z,99149.87
2024-02-09T05:55:11.220Z,99143.38
2024-02-09T06:00:18.277Z,99138.96
2024-02-09T06:05:24.268Z,99131.96
2024-02-09T06:10:30.321Z,99138.96
2024-02-09T06:15:36.109Z,99142.04
2024-02-09T06:20:41.652Z,99144.77
2024-02-09T06:25:48.467Z,99153.31
2024-02-09T06:30:54.973Z,99160.30
2024-02-09T06:36:00.899Z,99160.80
2024-02-09T06:41:08.861Z,99167.94
2024-02-09T06:46:18.196Z,99172.85
2024-02-09T06:51:24.968Z,99161.39
2024-02-09T06:56:31.369Z,99155.56
2024-02-09T07:01:40.795Z,99162.02
2024-02-09T07:06:48.640Z,99163.33
2024-02-09T07:11:54.902Z,99170.29
2024-02-09T07:17:00.493Z,99168.89
2024-02-09T07:22:06.687Z,99156.56
2024-02-09T07:27:14.966Z,99144.91
2024-02-09T07:32:20.795Z,99137.98
2024-02-09T07:37:26.840Z,99140.81
2024-02-09T07:42:33.043Z,99136.11
2024-02-09T07:47:38.637Z,99123.91
2024-02-09T07:52:47.018Z,99123.71
2024-02-09T07:57:53.112Z,99126.05
2024-02-09T08:02:58.758Z,99125.81
2024-02-09T08:08:04.876Z,99119.79
2024-02-09T08:13:10.864Z,99114.85
2024-02-09T08:18:16.634Z,99110.08
2024-02-09T08:23:22.427Z,99110.83
2024-02-09T08:28:28.922Z,99119.95
2024-02-09T08:33:34.609Z,99114.59
2024-02-09T08:38:40.795Z,99103.18
2024-02-09T08:43:46.786Z,99108.98
2024-02-09T08:48:52.748Z,99115.73
2024-02-09T08:54:00.383Z,99116.66
2024-02-09T08:59:11.218Z,99112.96
2024-02-09T09:04:19.337Z,99103.35
2024-02-09T09:09:26.361Z,99093.34
2024-02-09T09:14:33.441Z,99088.64
2024-02-09T09:19:42.400Z,99082.88
2024-02-09T09:24:48.352Z,99078.77
2024-02-09T09:29:54.821Z,99086.52
2024-02-09T09:35:01.622Z,99093.40
2024-02-09T09:40:11.936Z,99089.23
2024-02-09T09:45:20.255Z,99093.41
2024-02-09T09:50:27.636Z,99083.66
2024-02-09T09:55:36.123Z,99083.28
2024-02-09T10:00:44.251Z,99075.26
2024-02-09T10:05:50.326Z,99072.89
2024-02-09T10:10:59.057Z,99067.73
2024-02-09T10:16:06.299Z,99067.48
2024-02-09T10:21:12.958Z,99065.86
2024-02-09T10:26:18.944Z,99061.10
2024-02-09T10:31:26.993Z,99068.10
2024-02-09T10:36:33.794Z,99065.02
2024-02-09T10:41:41.479Z,99061.16
2024-02-09T10:46:47.803Z,99058.36
2024-02-09T10:51:59.146Z,99052.88
2024-02-09T10:57:06.821Z,99045.04
2024-02-09T11:02:15.283Z,99039.25
2024-02-09T11:07:21.538Z,99029.52
2024-02-09T11:12:27.211Z,99026.80
2024-02-09T11:17:32.981Z,99023.73
2024-02-09T11:22:42.445Z,99017.89
2024-02-09T11:27:52.894Z,99023.48
2024-02-09T11:33:02.355Z,99024.00
2024-02-09T11:38:08.131Z,99009.33
2024-02-09T11:43:14.187Z,99004.72
2024-02-09T11:48:20.379Z,98990.38
2024-02-09T11:53:27.723Z,98982.66
2024-02-09T11:58:33.470Z,98980.70
2024-02-09T12:03:39.332Z,98972.43
2024-02-09T12:08:46.298Z,98976.40
2024-02-09T12:13:53.041Z,98974.77
2024-02-09T12:18:59.871Z,98963.15
2024-02-09T12:24:10.912Z,98962.64
2024-02-09T12:29:17.733Z,98966.48
2024-02-09T12:34:24.335Z,98965.71
2024-02-09T12:39:30.865Z,98958.08
2024-02-09T12:44:44.357Z,98943.36
2024-02-09T12:49:52.096Z,98939.95
2024-02-09T12:54:58.739Z,98948.02
2024-02-09T13:00:12.416Z,98948.77
2024-02-09T13:05:20.989Z,98949.73
2024-02-09T13:10:33.488Z,98948.58
2024-02-09T13:15:39.312Z,98947.75
2024-02-09T13:20:46.871Z,98941.55
2024-02-09T13:25:52.902Z,98922.83
2024-02-09T13:30:59.128Z,98915.06
2024-02-09T13:36:09.140Z,98916.12
2024-02-09T13:41:15.814Z,98910.73
2024-02-09T13:46:21.870Z,98909.92
2024-02-09T13:51:31.090Z,98899.71
2024-02-09T13:56:39.811Z,98887.82
2024-02-09T14:01:45.963Z,98879.85
2024-02-09T14:06:51.828Z,98859.26
2024-02-09T14:11:57.843Z,98849.58
2024-02-09T14:17:05.909Z,98849.61
2024-02-09T14:22:13.535Z,98846.21
2024-02-09T14:27:19.134Z,98839.05
2024-02-09T14:32:25.619Z,98833.77
2024-02-09T14:37:31.533Z,98828.34
2024-02-09T14:42:39.783Z,98826.15
2024-02-09T14:47:45.700Z,98823.27
2024-02-09T14:52:51.790Z,98826.85
2024-02-09T14:58:04.401Z,98814.21
2024-02-09T15:03:10.318Z,98819.53
2024-02-09T15:08:16.209Z,98820.20
2024-02-09T15:13:28.600Z,98827.04
2024-02-09T15:18:34.492Z,98817.14
2024-02-09T15:23:40.513Z,98815.80
2024-02-09T15:28:46.383Z,98808.15
2024-02-09T15:33:52.205Z,98802.65
2024-02-09T15:38:58.231Z,98797.31
2024-02-09T15:44:05.826Z,98788.08
2024-02-09T15:49:16.235Z,98789.66
2024-02-09T15:54:22.206Z,98788.14
2024-02-09T15:59:28.184Z,98786.08
2024-02-09T16:04:33.966Z,98791.68
2024-02-09T16:09:39.710Z,98792.21
2024-02-09T16:14:45.537Z,98787.62
2024-02-09T16:19:51.773Z,98792.73
2024-02-09T16:24:57.739Z,98790.16
2024-02-09T16:30:05.330Z,98788.42
2024-02-09T16:35:11.614Z,98793.71
2024-02-09T16:40:18.862Z,98802.95
2024-02-09T16:45:24.624Z,98805.89
2024-02-09T16:50:30.212Z,98805.91
2024-02-09T16:55:35.994Z,98808.61
2024-02-09T17:00:41.624Z,98809.83
2024-02-09T17:05:47.788Z,98807.95
2024-02-09T17:10:53.641Z,98810.83
2024-02-09T17:15:59.284Z,98808.93
2024-02-09T17:21:05.217Z,98808.41
2024-02-09T17:26:11.262Z,98796.98
2024-02-09T17:31:17.184Z,98801.27
2024-02-09T17:36:22.797Z,98794.75
2024-02-09T17:41:31.074Z,98781.40
2024-02-09T17:46:36.915Z,98780.90
2024-02-09T17:51:42.442Z,98781.41
2024-02-09T17:56:48.249Z,98786.18
2024-02-09T18:01:53.903Z,98788.20
2024-02-09T18:06:59.595Z,98785.28
2024-02-09T18:12:06.175Z,98780.84
2024-02-09T18:17:11.779Z,98784.27
2024-02-09T18:22:18.764Z,98768.20
2024-02-09T18:27:27.956Z,98763.02
2024-02-09T18:32:33.624Z,98763.54
2024-02-09T18:37:41.353Z,98762.70
2024-02-09T18:42:50.584Z,98764.58
2024-02-09T18:47:56.533Z,98760.27
2024-02-09T18:53:02.160Z,98756.79
2024-02-09T18:58:08.035Z,98757.75
2024-02-09T19:03:17.495Z,98752.81
2024-02-09T19:08:27.354Z,98746.52
2024-02-09T19:13:34.165Z,98736.90
2024-02-09T19:18:40.932Z,98741.79
2024-02-09T19:23:46.618Z,98726.42
2024-02-09T19:28:52.797Z,98728.15
2024-02-09T19:33:59.224Z,98726.08
2024-02-09T19:39:05.561Z,98726.52
2024-02-09T19:44:12.188Z,98722.71
2024-02-09T19:49:18.709Z,98718.74
2024-02-09T19:54:24.583Z,98719.10
2024-02-09T19:59:33.993Z,98728.30
2024-02-09T20:04:41.023Z,98727.40
2024-02-09T20:09:46.628Z,98732.67
2024-02-09T20:14:53.434Z,98722.60
2024-02-09T20:19:59.161Z,98725.16
2024-02-09T20:25:06.013Z,98730.05
2024-02-09T20:30:14.110Z,98725.06
2024-02-09T20:35:21.007Z,98726.92
2024-02-09T20:40:26.794Z,98722.35
2024-02-09T20:45:36.968Z,98714.85
2024-02-09T20:50:44.441Z,98711.70
2024-02-09T20:55:50.945Z,98712.86
2024-02-09T21:00:57.106Z,98717.00
2024-02-09T21:06:03.274Z,98717.14
2024-02-09T21:11:11.835Z,98712.92
2024-02-09T21:16:17.893Z,98712.69
2024-02-09T21:21:24.247Z,98716.80
2024-02-09T21:26:29.967Z,98711.98
2024-02-09T21:31:35.674Z,98718.05
2024-02-09T21:36:41.494Z,98720.00
2024-02-09T21:41:47.212Z,98724.41
2024-02-09T21:46:53.478Z,98722.73
2024-02-09T21:52:02.003Z,98719.10
2024-02-09T21:57:09.223Z,98721.93
2024-02-09T22:02:21.054Z,98721.52
2024-02-09T22:07:28.414Z,98716.63
2024-02-09T22:12:36.277Z,98718.88
2024-02-09T22:17:42.320Z,98717.95
2024-02-09T22:22:50.891Z,98720.99
2024-02-09T22:27:57.376Z,98716.20
2024-02-09T22:33:05.330Z,98722.02
2024-02-09T22:38:15.047Z,98721.98
2024-02-09T22:43:25.373Z,98715.94
2024-02-09T22:48:32.495Z,98716.32
2024-02-09T22:53:38.937Z,98718.79
2024-02-09T22:58:45.613Z,98720.98
2024-02-09T23:03:52.139Z,98708.09
2024-02-09T23:08:57.855Z,98713.32
2024-02-09T23:14:03.547Z,98711.24
2024-02-09T23:19:10.452Z,98711.11
2024-02-09T23:24:22.357Z,98715.75
2024-02-09T23:29:28.640Z,98717.24
2024-02-09T23:34:35.445Z,98717.88
2024-02-09T23:39:41.421Z,98721.59
2024-02-09T23:44:47.089Z,98710.30
2024-02-09T23:49:58.111Z,98709.96
2024-02-09T23:55:05.239Z,98704.27
